Sandpiper — WDG2173 — position and weather

sailwx.info

Track history (hours):
 
Tides and Currents Weather Stations Pressure Air Temp Water Temp Dewpoint Dewpoint Depression Visibility Wind Speed Wind Dir Waves Ship Positions

Sandpiper

Owner: Higman Barge Lines, Inc., Orange, TX. More information available from US FCC via Universal Licensing System and Coast Guard Vessel Documentation Center.

Last reported at 2017-Oct-22 21:30 UTC. Time now 2017-Oct-22 23:03 UTC.
Position N 29°46' W 095°07'.

Length 26 m; draft 3 m.

Type: Towing. MMSI: 367512920.

Date/timePositionNaut miles runAvg speedWind from/ knotsBaromVisibWave heightAir tempDewpointWater temp
2017-Oct-22 21:30N 29°46' W 095°07'1 0.7
2017-Oct-22 19:48N 29°45' W 095°06'1 0.2
2017-Oct-22 12:23N 29°46' W 095°07'1 2.8
2017-Oct-22 12:00N 29°45' W 095°06'4 8.7
2017-Oct-22 11:30N 29°45' W 095°11'1 2.1
2017-Oct-22 11:00N 29°44' W 095°12'3 6.3
2017-Oct-22 10:30N 29°44' W 095°09'2 3.2
2017-Oct-22 09:50N 29°46' W 095°07'0 0.5
2017-Oct-22 09:22N 29°46' W 095°07'1 2.1
2017-Oct-22 08:59N 29°45' W 095°06'3 5.9
2017-Oct-22 08:30N 29°44' W 095°09'3 4.7
2017-Oct-22 07:48N 29°44' W 095°12'0 0.1
2017-Oct-22 07:30N 29°44' W 095°12'0 0.5
2017-Oct-22 06:45N 29°44' W 095°12'0 0.0
2017-Oct-22 06:30N 29°44' W 095°12'0 0.0
2017-Oct-22 06:00N 29°44' W 095°12'0 0.0
2017-Oct-22 05:30N 29°44' W 095°12'0 0.0
2017-Oct-22 04:54N 29°44' W 095°12'0 0.0
2017-Oct-22 04:19N 29°44' W 095°12'0 0.0
2017-Oct-22 03:59N 29°44' W 095°12'0 0.0
2017-Oct-22 03:30N 29°44' W 095°12'0 0.0
2017-Oct-22 02:59N 29°44' W 095°12'0 0.0
2017-Oct-22 02:26N 29°44' W 095°12'0 0.0
2017-Oct-22 01:57N 29°44' W 095°12'0 0.0
2017-Oct-22 00:47N 29°44' W 095°12'0 0.0
2017-Oct-21 23:54N 29°44' W 095°12'0 0.0
2017-Oct-21 23:30N 29°44' W 095°12'0 0.0
2017-Oct-21 23:00N 29°44' W 095°12'0 0.0
2017-Oct-21 22:28N 29°44' W 095°12'0 0.0
2017-Oct-21 21:58N 29°44' W 095°12'0 0.0
2017-Oct-21 21:29N 29°44' W 095°12'0 0.0
2017-Oct-21 21:00N 29°44' W 095°12'0 0.0
2017-Oct-21 20:25N 29°44' W 095°12'0 0.0
2017-Oct-21 19:59N 29°44' W 095°12'0 0.0
2017-Oct-21 19:28N 29°44' W 095°12'0 0.0
2017-Oct-21 18:57N 29°44' W 095°12'0 0.0
2017-Oct-21 18:30N 29°44' W 095°12'0 0.0
2017-Oct-21 18:00N 29°44' W 095°12'0 0.0
2017-Oct-21 17:30N 29°44' W 095°12'0 0.0
2017-Oct-21 17:00N 29°44' W 095°12'0 0.0
2017-Oct-21 16:29N 29°44' W 095°12'0 0.0
2017-Oct-21 15:57N 29°44' W 095°12'0 0.0
2017-Oct-21 15:29N 29°44' W 095°12'0 0.0
2017-Oct-21 14:59N 29°44' W 095°12'0 0.0
2017-Oct-21 14:29N 29°44' W 095°12'0 0.0
2017-Oct-21 13:30N 29°44' W 095°12'0 0.0
2017-Oct-21 13:00N 29°44' W 095°12'0 0.0
2017-Oct-21 12:30N 29°44' W 095°12'0 0.0
2017-Oct-21 11:55N 29°44' W 095°12'0 0.0
2017-Oct-21 11:27N 29°44' W 095°12'0 0.0
2017-Oct-21 10:57N 29°44' W 095°12'0 0.0
2017-Oct-21 10:30N 29°44' W 095°12'0 0.0
2017-Oct-21 10:00N 29°44' W 095°12'0 0.0
2017-Oct-21 09:29N 29°44' W 095°12'0 0.0
2017-Oct-21 09:00N 29°44' W 095°12'0 0.0
2017-Oct-21 08:29N 29°44' W 095°12'0 0.0
2017-Oct-21 07:59N 29°44' W 095°12'0 0.0
2017-Oct-21 07:30N 29°44' W 095°12'0 0.0
2017-Oct-21 07:00N 29°44' W 095°12'0 0.0
2017-Oct-21 06:30N 29°44' W 095°12'0 0.0
2017-Oct-21 06:00N 29°44' W 095°12'0 0.0
2017-Oct-21 05:30N 29°44' W 095°12'0 0.0
2017-Oct-21 05:00N 29°44' W 095°12'0 0.0
2017-Oct-21 04:27N 29°44' W 095°12'0 0.0
2017-Oct-21 04:00N 29°44' W 095°12'0 0.0
2017-Oct-21 03:28N 29°44' W 095°12'0 0.0
2017-Oct-21 02:59N 29°44' W 095°12'0 0.0
2017-Oct-21 02:30N 29°44' W 095°12'0 0.0
2017-Oct-21 01:53N 29°44' W 095°12'0 0.0
2017-Oct-21 00:57N 29°44' W 095°12'0 0.0
2017-Oct-21 00:29N 29°44' W 095°12'0 0.0
2017-Oct-20 23:58N 29°44' W 095°12'0 0.0
2017-Oct-20 23:30N 29°44' W 095°12'0 0.0
2017-Oct-20 22:49N 29°44' W 095°12'0 0.0
2017-Oct-20 22:20N 29°44' W 095°12'0 0.0
2017-Oct-20 21:59N 29°44' W 095°12'0 0.0
2017-Oct-20 20:22N 29°44' W 095°12'0 0.0
2017-Oct-20 20:00N 29°44' W 095°12'0 0.0
2017-Oct-20 19:27N 29°44' W 095°12'0 0.0
2017-Oct-20 18:55N 29°44' W 095°12'0 0.0
2017-Oct-20 18:26N 29°44' W 095°12'0 0.0
2017-Oct-20 07:24N 29°44' W 095°12'2 2.2
2017-Oct-20 06:24N 29°45' W 095°10'2 3.8
2017-Oct-20 06:00N 29°44' W 095°08'2 3.1
2017-Oct-20 05:22N 29°45' W 095°06'1 2.1
2017-Oct-20 04:59N 29°46' W 095°06'1 1.4
2017-Oct-20 04:30N 29°46' W 095°07'0 0.0
2017-Oct-20 04:00N 29°46' W 095°07'0 0.1
2017-Oct-20 03:30N 29°46' W 095°07'0 0.5
2017-Oct-20 02:47N 29°46' W 095°07'0 0.3
2017-Oct-20 02:29N 29°46' W 095°06'1 1.0
2017-Oct-20 01:13N 29°46' W 095°05'1 4.8
2017-Oct-20 00:59N 29°45' W 095°04'3 5.5
2017-Oct-20 00:22N 29°43' W 095°01'2 5.5
2017-Oct-20 00:00N 29°42' W 094°59'3 6.6
2017-Oct-19 23:30N 29°39' W 094°58'3 6.6
2017-Oct-19 23:00N 29°36' W 094°57'3 6.7
2017-Oct-19 22:30N 29°33' W 094°54'  
Track history (hours):
 
Tides and Currents Weather Stations Pressure Air Temp Water Temp Dewpoint Dewpoint Depression Visibility Wind Speed Wind Dir Waves Ship Positions

Sandpiper

Owner: Higman Barge Lines, Inc., Orange, TX. More information available from US FCC via Universal Licensing System and Coast Guard Vessel Documentation Center.

Last reported at 2017-Oct-22 21:30 UTC. Time now 2017-Oct-22 23:03 UTC.
Position N 29°46' W 095°07'.

Length 26 m; draft 3 m.

Type: Towing. MMSI: 367512920.

Date/timePositionNaut miles runAvg speedWind from/ knotsBaromVisibWave heightAir tempDewpointWater temp
2017-Oct-22 21:30N 29°46' W 095°07'1 0.7
2017-Oct-22 19:48N 29°45' W 095°06'1 0.2
2017-Oct-22 12:23N 29°46' W 095°07'1 2.8
2017-Oct-22 12:00N 29°45' W 095°06'4 8.7
2017-Oct-22 11:30N 29°45' W 095°11'1 2.1
2017-Oct-22 11:00N 29°44' W 095°12'3 6.3
2017-Oct-22 10:30N 29°44' W 095°09'2 3.2
2017-Oct-22 09:50N 29°46' W 095°07'0 0.5
2017-Oct-22 09:22N 29°46' W 095°07'1 2.1
2017-Oct-22 08:59N 29°45' W 095°06'3 5.9
2017-Oct-22 08:30N 29°44' W 095°09'3 4.7
2017-Oct-22 07:48N 29°44' W 095°12'0 0.1
2017-Oct-22 07:30N 29°44' W 095°12'0 0.5
2017-Oct-22 06:45N 29°44' W 095°12'0 0.0
2017-Oct-22 06:30N 29°44' W 095°12'0 0.0
2017-Oct-22 06:00N 29°44' W 095°12'0 0.0
2017-Oct-22 05:30N 29°44' W 095°12'0 0.0
2017-Oct-22 04:54N 29°44' W 095°12'0 0.0
2017-Oct-22 04:19N 29°44' W 095°12'0 0.0
2017-Oct-22 03:59N 29°44' W 095°12'0 0.0
2017-Oct-22 03:30N 29°44' W 095°12'0 0.0
2017-Oct-22 02:59N 29°44' W 095°12'0 0.0
2017-Oct-22 02:26N 29°44' W 095°12'0 0.0
2017-Oct-22 01:57N 29°44' W 095°12'0 0.0
2017-Oct-22 00:47N 29°44' W 095°12'0 0.0
2017-Oct-21 23:54N 29°44' W 095°12'0 0.0
2017-Oct-21 23:30N 29°44' W 095°12'0 0.0
2017-Oct-21 23:00N 29°44' W 095°12'0 0.0
2017-Oct-21 22:28N 29°44' W 095°12'0 0.0
2017-Oct-21 21:58N 29°44' W 095°12'0 0.0
2017-Oct-21 21:29N 29°44' W 095°12'0 0.0
2017-Oct-21 21:00N 29°44' W 095°12'0 0.0
2017-Oct-21 20:25N 29°44' W 095°12'0 0.0
2017-Oct-21 19:59N 29°44' W 095°12'0 0.0
2017-Oct-21 19:28N 29°44' W 095°12'0 0.0
2017-Oct-21 18:57N 29°44' W 095°12'0 0.0
2017-Oct-21 18:30N 29°44' W 095°12'0 0.0
2017-Oct-21 18:00N 29°44' W 095°12'0 0.0
2017-Oct-21 17:30N 29°44' W 095°12'0 0.0
2017-Oct-21 17:00N 29°44' W 095°12'0 0.0
2017-Oct-21 16:29N 29°44' W 095°12'0 0.0
2017-Oct-21 15:57N 29°44' W 095°12'0 0.0
2017-Oct-21 15:29N 29°44' W 095°12'0 0.0
2017-Oct-21 14:59N 29°44' W 095°12'0 0.0
2017-Oct-21 14:29N 29°44' W 095°12'0 0.0
2017-Oct-21 13:30N 29°44' W 095°12'0 0.0
2017-Oct-21 13:00N 29°44' W 095°12'0 0.0
2017-Oct-21 12:30N 29°44' W 095°12'0 0.0
2017-Oct-21 11:55N 29°44' W 095°12'0 0.0
2017-Oct-21 11:27N 29°44' W 095°12'0 0.0
2017-Oct-21 10:57N 29°44' W 095°12'0 0.0
2017-Oct-21 10:30N 29°44' W 095°12'0 0.0
2017-Oct-21 10:00N 29°44' W 095°12'0 0.0
2017-Oct-21 09:29N 29°44' W 095°12'0 0.0
2017-Oct-21 09:00N 29°44' W 095°12'0 0.0
2017-Oct-21 08:29N 29°44' W 095°12'0 0.0
2017-Oct-21 07:59N 29°44' W 095°12'0 0.0
2017-Oct-21 07:30N 29°44' W 095°12'0 0.0
2017-Oct-21 07:00N 29°44' W 095°12'0 0.0
2017-Oct-21 06:30N 29°44' W 095°12'0 0.0
2017-Oct-21 06:00N 29°44' W 095°12'0 0.0
2017-Oct-21 05:30N 29°44' W 095°12'0 0.0
2017-Oct-21 05:00N 29°44' W 095°12'0 0.0
2017-Oct-21 04:27N 29°44' W 095°12'0 0.0
2017-Oct-21 04:00N 29°44' W 095°12'0 0.0
2017-Oct-21 03:28N 29°44' W 095°12'0 0.0
2017-Oct-21 02:59N 29°44' W 095°12'0 0.0
2017-Oct-21 02:30N 29°44' W 095°12'0 0.0
2017-Oct-21 01:53N 29°44' W 095°12'0 0.0
2017-Oct-21 00:57N 29°44' W 095°12'0 0.0
2017-Oct-21 00:29N 29°44' W 095°12'0 0.0
2017-Oct-20 23:58N 29°44' W 095°12'0 0.0
2017-Oct-20 23:30N 29°44' W 095°12'0 0.0
2017-Oct-20 22:49N 29°44' W 095°12'0 0.0
2017-Oct-20 22:20N 29°44' W 095°12'0 0.0
2017-Oct-20 21:59N 29°44' W 095°12'0 0.0
2017-Oct-20 20:22N 29°44' W 095°12'0 0.0
2017-Oct-20 20:00N 29°44' W 095°12'0 0.0
2017-Oct-20 19:27N 29°44' W 095°12'0 0.0
2017-Oct-20 18:55N 29°44' W 095°12'0 0.0
2017-Oct-20 18:26N 29°44' W 095°12'0 0.0
2017-Oct-20 07:24N 29°44' W 095°12'2 2.2
2017-Oct-20 06:24N 29°45' W 095°10'2 3.8
2017-Oct-20 06:00N 29°44' W 095°08'2 3.1
2017-Oct-20 05:22N 29°45' W 095°06'1 2.1
2017-Oct-20 04:59N 29°46' W 095°06'1 1.4
2017-Oct-20 04:30N 29°46' W 095°07'0 0.0
2017-Oct-20 04:00N 29°46' W 095°07'0 0.1
2017-Oct-20 03:30N 29°46' W 095°07'0 0.5
2017-Oct-20 02:47N 29°46' W 095°07'0 0.3
2017-Oct-20 02:29N 29°46' W 095°06'1 1.0
2017-Oct-20 01:13N 29°46' W 095°05'1 4.8
2017-Oct-20 00:59N 29°45' W 095°04'3 5.5
2017-Oct-20 00:22N 29°43' W 095°01'2 5.5
2017-Oct-20 00:00N 29°42' W 094°59'3 6.6
2017-Oct-19 23:30N 29°39' W 094°58'3 6.6
2017-Oct-19 23:00N 29°36' W 094°57'3 6.7
2017-Oct-19 22:30N 29°33' W 094°54'  

Dump ship's entire track history